Latest Weather Observations for Kingaroy

IDQ60901

Issued at 7:35 pm EST Monday 20 October 2014 (issued every 10 minutes, with the page automatically refreshed every 10 minutes)

About weather observations | Map of Brisbane area stations | Latest observations for Brisbane area | Other Formats
Station Details ID: 040922 Name: KINGAROY AIRPORT Lat: -26.57 Lon: 151.84 Height: 433.67 m
Data from the previous 72 hours. | See also: Recent months at Kingaroy
Date/Time
EST
Tmp

°C
App
Tmp
°C
Dew
Point
°C
Rel
Hum
%
Delta-T

°C
Wind Press
QNH
hPa
Press
MSL
hPa
Rain
since
9 am
mm
Dir
 
Spd
km/h
Gust
km/h
Spd
kts
Gust
kts
20/07:30pm 21.4 19.2 9.3 46 6.6 E 11 17 6 9 1024.5 1023.0 0.0
20/07:00pm 22.4 19.5 8.1 40 7.6 E 13 17 7 9 1023.9 1022.4 0.0
20/06:30pm 23.1 20.1 6.0 33 8.9 ESE 11 15 6 8 1023.2 1021.7 0.0
20/06:00pm 24.8 21.0 5.6 29 10.0 E 15 20 8 11 1022.8 1021.3 0.0
20/05:30pm 26.1 22.0 6.2 28 10.5 E 17 24 9 13 1022.5 1021.0 0.0
20/05:00pm 27.1 22.6 6.0 26 11.2 ESE 19 26 10 14 1022.1 1020.6 0.0
20/04:30pm 27.8 23.8 6.6 26 11.4 ESE 17 26 9 14 1021.7 1020.1 0.0
20/04:00pm 27.6 22.6 4.6 23 11.9 SE 20 33 11 18 1021.6 1020.0 0.0
20/03:30pm 27.8 24.0 6.0 25 11.6 SE 15 20 8 11 1021.5 1019.9 0.0
20/03:00pm 29.1 25.2 7.1 25 12.0 ESE 17 28 9 15 1021.6 1020.0 0.0
20/02:30pm 28.2 23.6 5.7 24 12.0 ESE 19 35 10 19 1021.8 1020.3 0.0
20/02:00pm 28.4 24.9 7.1 26 11.6 SE 15 28 8 15 1022.1 1020.6 0.0
20/01:30pm 27.6 23.8 5.8 25 11.6 SE 15 20 8 11 1022.5 1021.0 0.0
20/01:00pm 27.3 24.6 7.2 28 10.9 S 11 19 6 10 1022.9 1021.4 0.0
20/12:30pm 27.1 23.8 8.0 30 10.5 SE 15 20 8 11 1023.3 1021.8 0.0
20/12:00pm 26.3 22.2 7.8 31 10.0 SSE 19 26 10 14 1024.0 1022.5 0.0
20/11:30am 25.5 22.3 8.5 34 9.3 ESE 15 24 8 13 1024.6 1023.1 0.0
20/11:00am 24.5 21.7 8.5 36 8.7 S 13 19 7 10 1024.9 1023.4 0.0
20/10:30am 23.4 21.4 10.1 43 7.4 SE 11 26 6 14 1025.6 1024.1 0.0
20/10:00am 21.7 19.6 9.6 46 6.6 NNE 11 22 6 12 1025.9 1024.5 0.0
20/09:30am 21.3 19.1 9.5 47 6.5 E 11 19 6 10 1026.3 1024.8 0.0
20/09:00am 20.1 17.9 9.4 50 5.8 E 11 20 6 11 1026.5 1025.0 0.0
20/08:30am 19.5 18.4 10.8 57 4.8 ENE 7 13 4 7 1026.6 1025.1 0.0
20/08:00am 18.4 16.6 11.0 62 4.1 E 11 19 6 10 1026.8 1025.3 0.0
20/07:30am 17.4 16.5 11.4 68 3.3 ENE 7 19 4 10 1026.6 1025.1 0.0
20/07:00am 14.4 14.8 11.2 81 1.7 CALM 0 0 0 0 1026.4 1024.9 0.0
20/06:30am 12.1 12.2 10.3 89 0.9 CALM 0 0 0 0 1026.2 1024.7 0.0
20/06:00am 9.4 8.9 7.8 90 0.8 CALM 0 0 0 0 1026.1 1024.6 0.0
20/05:30am 8.3 7.7 7.4 94 0.4 CALM 0 0 0 0 1025.7 1024.2 0.0
20/05:00am 8.3 7.7 7.2 93 0.5 CALM 0 0 0 0 1025.6 1024.1 0.0
20/04:30am 8.3 7.6 6.9 91 0.7 CALM 0 0 0 0 1025.3 1023.8 0.0
20/04:00am 9.1 7.5 8.0 93 0.5 SSW 6 6 3 3 1025.3 1023.8 0.0
20/03:30am 8.9 7.2 7.5 91 0.7 SSW 6 7 3 4 1025.1 1023.6 0.0
20/03:00am 9.3 7.5 7.9 91 0.7 S 7 9 4 5 1025.1 1023.6 0.0
20/02:30am 9.3 7.1 7.9 91 0.7 S 9 11 5 6 1025.2 1023.7 0.0
20/02:00am 10.3 10.0 8.7 90 0.8 CALM 0 2 0 1 1025.4 1023.9 0.0
20/01:30am 10.4 9.4 8.7 89 0.9 WSW 4 7 2 4 1025.6 1024.1 0.0
20/01:00am 10.8 10.1 8.4 85 1.2 E 2 7 1 4 1025.8 1024.4 0.0
20/12:30am 11.2 9.8 9.6 90 0.8 E 7 9 4 5 1026.4 1024.9 0.0
20/12:00am 11.5 11.3 9.1 85 1.2 ESE 0 0 0 0 1026.8 1025.3 0.0
 
Date/Time
EST
Tmp

°C
App
Tmp
°C
Dew
Point
°C
Rel
Hum
%
Delta-T

°C
Wind Press
QNH
hPa
Press
MSL
hPa
Rain
since
9 am
mm
Dir
 
Spd
km/h
Gust
km/h
Spd
kts
Gust
kts
19/11:30pm 11.5 10.9 8.9 84 1.3 SSE 2 7 1 4 1026.9 1025.4 0.0
19/11:00pm 12.9 12.4 9.2 78 1.9 ESE 2 7 1 4 1027.0 1025.5 0.0
19/10:30pm 13.8 12.8 10.4 80 1.8 ESE 6 7 3 4 1027.1 1025.6 0.0
19/10:00pm 14.8 13.9 10.8 77 2.1 E 6 7 3 4 1027.0 1025.5 0.0
19/09:30pm 15.9 14.7 11.7 76 2.3 ENE 9 15 5 8 1026.9 1025.4 0.0
19/09:00pm 16.3 15.6 11.5 73 2.6 NE 6 11 3 6 1026.5 1025.0 0.0
19/08:30pm 17.2 15.3 11.7 70 3.1 ENE 13 20 7 11 1025.9 1024.5 0.0
19/08:00pm 17.9 15.8 11.0 64 3.8 ENE 13 19 7 10 1025.5 1024.0 0.0
19/07:30pm 18.8 16.9 10.4 58 4.6 ENE 11 20 6 11 1025.2 1023.7 0.0
19/07:00pm 18.8 16.1 7.3 47 5.9 E 11 15 6 8 1025.0 1023.5 0.0
19/06:30pm 20.2 17.3 6.5 41 7.0 E 11 13 6 7 1024.6 1023.1 0.0
19/06:00pm 21.7 18.8 6.4 37 7.9 ESE 11 15 6 8 1024.2 1022.7 0.0
19/05:30pm 23.1 19.0 6.4 34 8.7 ESE 17 26 9 14 1023.8 1022.2 0.0
19/05:00pm 23.9 19.9 6.7 33 9.0 E 17 30 9 16 1023.4 1021.9 0.0
19/04:30pm 24.6 20.3 5.4 29 9.9 ESE 17 28 9 15 1023.1 1021.6 0.0
19/04:00pm 25.2 20.6 6.4 30 9.9 ESE 20 30 11 16 1023.0 1021.5 0.0
19/03:30pm 25.7 22.2 7.3 31 9.9 E 15 30 8 16 1022.9 1021.4 0.0
19/03:00pm 26.6 22.6 8.1 31 10.1 SE 19 28 10 15 1023.0 1021.5 0.0
19/02:30pm 25.0 20.4 6.7 31 9.7 ESE 20 33 11 18 1023.4 1021.9 0.0
19/02:00pm 26.5 22.5 8.9 33 9.8 SSE 20 28 11 15 1023.8 1022.2 0.0
19/01:30pm 24.4 20.1 7.1 33 9.2 ESE 19 37 10 20 1024.3 1022.8 0.0
19/01:00pm 25.1 20.1 8.1 34 9.2 S 24 37 13 20 1024.8 1023.3 0.0
19/12:30pm 25.4 21.5 8.8 35 9.2 ESE 19 32 10 17 1025.2 1023.7 0.0
19/12:00pm 24.5 21.4 8.9 37 8.5 ESE 15 26 8 14 1025.7 1024.2 0.0
19/11:30am 23.6 21.6 8.8 39 8.1 SSE 9 19 5 10 1026.1 1024.6 0.0
19/11:00am 23.0 21.0 10.1 44 7.2 ENE 11 17 6 9 1026.6 1025.1 0.0
19/10:30am 22.0 20.2 10.8 49 6.3 E 11 20 6 11 1027.1 1025.6 0.0
19/10:00am 22.2 19.8 11.3 50 6.2 ESE 15 24 8 13 1027.5 1026.0 0.0
19/09:30am 21.8 19.5 11.8 53 5.7 E 15 30 8 16 1027.9 1026.5 0.0
19/09:00am 19.5 16.9 10.8 57 4.8 E 15 20 8 11 1028.2 1026.8 0.0
19/08:30am 18.9 15.8 11.7 63 4.0 ESE 19 24 10 13 1028.3 1026.9 0.0
19/08:00am 18.6 15.6 12.4 67 3.5 ESE 20 30 11 16 1028.3 1026.9 0.0
19/07:30am 16.8 14.3 12.3 75 2.5 ESE 17 24 9 13 1028.3 1026.9 0.0
19/07:00am 15.9 13.3 12.1 78 2.1 ESE 17 26 9 14 1028.1 1026.7 0.0
19/06:30am 14.9 13.6 12.4 85 1.4 SE 11 17 6 9 1027.8 1026.3 0.0
19/06:00am 14.3 12.5 12.2 87 1.2 SSE 13 20 7 11 1027.4 1025.9 0.0
19/05:30am 14.0 12.6 12.2 89 1.0 SE 11 19 6 10 1027.0 1025.5 0.0
19/05:00am 13.7 12.2 11.9 89 1.0 SE 11 19 6 10 1026.6 1025.1 0.0
19/04:30am 13.9 12.2 12.5 91 0.8 SSE 13 20 7 11 1026.2 1024.7 0.0
19/04:00am 13.2 11.7 11.8 91 0.8 SSE 11 15 6 8 1026.1 1024.6 0.0
19/03:30am 13.6 12.5 12.0 90 0.9 SSE 9 13 5 7 1025.9 1024.5 0.0
19/03:00am 13.9 12.7 11.6 86 1.3 SSE 9 13 5 7 1025.7 1024.2 0.0
19/02:30am 14.9 13.6 12.6 86 1.3 ESE 11 15 6 8 1025.7 1024.2 0.0
19/02:00am 14.7 14.2 12.7 88 1.1 SSE 7 11 4 6 1025.9 1024.5 0.0
19/01:30am 13.9 13.5 12.3 90 0.9 S 6 9 3 5 1026.3 1024.8 0.0
19/01:00am 13.8 12.8 12.2 90 0.9 SE 9 15 5 8 1026.4 1024.9 0.0
19/12:30am 12.4 10.6 10.8 90 0.9 S 11 15 6 8 1026.8 1025.3 0.0
19/12:00am 13.0 12.5 10.7 86 1.2 SSW 4 7 2 4 1026.9 1025.4 0.0
 
Date/Time
EST
Tmp

°C
App
Tmp
°C
Dew
Point
°C
Rel
Hum
%
Delta-T

°C
Wind Press
QNH
hPa
Press
MSL
hPa
Rain
since
9 am
mm
Dir
 
Spd
km/h
Gust
km/h
Spd
kts
Gust
kts
18/11:30pm 14.2 13.6 11.7 85 1.4 ESE 6 9 3 5 1027.0 1025.5 0.0
18/11:00pm 14.8 12.9 11.9 83 1.6 ESE 13 19 7 10 1027.0 1025.5 0.0
18/10:30pm 15.0 13.4 11.6 80 1.9 ESE 11 17 6 9 1027.2 1025.7 0.0
18/10:00pm 15.6 13.5 11.2 75 2.4 SE 13 22 7 12 1027.3 1025.8 0.0
18/09:30pm 16.1 14.3 10.8 71 2.9 ESE 11 17 6 9 1027.3 1025.8 0.0
18/09:00pm 16.4 15.3 10.5 68 3.2 E 7 11 4 6 1027.0 1025.5 0.0
18/08:30pm 16.9 14.9 10.3 65 3.6 E 11 17 6 9 1026.6 1025.1 0.0
18/08:00pm 17.7 15.0 10.3 62 4.0 E 15 24 8 13 1026.1 1024.6 0.0
18/07:30pm 18.3 15.0 9.6 57 4.7 E 17 26 9 14 1025.8 1024.4 0.0
18/07:00pm 18.9 15.5 9.1 53 5.2 ESE 17 22 9 12 1025.3 1023.8 0.0
18/06:30pm 19.8 15.9 8.8 49 5.9 ESE 19 28 10 15 1024.8 1023.3 0.0
18/06:00pm 20.6 16.5 7.9 44 6.7 ESE 19 28 10 15 1024.4 1022.9 0.0
18/05:30pm 21.9 17.8 7.7 40 7.5 ESE 19 26 10 14 1023.8 1022.2 0.0
18/05:00pm 23.7 19.6 6.0 32 9.2 E 17 26 9 14 1023.1 1021.6 0.0
18/04:30pm 24.1 19.9 5.9 31 9.5 SE 17 26 9 14 1022.8 1021.3 0.0
18/04:00pm 24.5 19.9 6.3 31 9.5 ESE 20 30 11 16 1022.7 1021.2 0.0
18/03:30pm 24.6 20.2 4.9 28 10.1 SE 17 24 9 13 1022.6 1021.1 0.0
18/03:00pm 24.6 20.3 5.4 29 9.9 SE 17 22 9 12 1022.8 1021.3 0.0
18/02:30pm 25.4 20.7 5.1 27 10.5 E 19 28 10 15 1023.0 1021.5 0.0
18/02:00pm 25.6 21.2 6.7 30 10.0 SSE 19 28 10 15 1023.1 1021.6 0.0
18/01:30pm 25.9 22.7 7.0 30 10.1 E 13 19 7 10 1023.4 1021.9 0.0
18/01:00pm 24.5 20.2 5.3 29 9.9 SSE 17 28 9 15 1024.1 1022.6 0.0
18/12:30pm 24.3 20.0 7.0 33 9.2 S 19 26 10 14 1024.3 1022.8 0.0
18/12:00pm 25.0 21.5 8.9 36 8.8 E 17 28 9 15 1024.7 1023.2 0.0
18/11:30am 22.8 19.7 8.9 41 7.6 E 15 24 8 13 1025.1 1023.6 0.0
18/11:00am 23.3 20.1 10.0 43 7.4 E 17 28 9 15 1025.5 1024.0 0.0
18/10:30am 22.4 19.0 10.5 47 6.7 ESE 19 28 10 15 1025.9 1024.5 0.0
18/10:00am 21.3 18.1 9.9 48 6.2 ESE 17 28 9 15 1026.3 1024.8 0.0
18/09:30am 20.2 16.4 9.2 49 5.9 ESE 19 30 10 16 1026.5 1025.0 0.0
18/09:00am 20.0 15.5 10.1 53 5.4 ESE 24 33 13 18 1026.7 1025.2 0.0
18/08:30am 19.6 15.8 11.1 58 4.7 ESE 22 33 12 18 1026.5 1025.0 0.0
18/08:00am 18.1 14.3 11.2 64 3.8 ESE 22 35 12 19 1026.5 1025.0 0.0
18/07:30am 17.6 14.3 11.6 68 3.3 ESE 20 37 11 20 1026.4 1024.9 0.0
18/07:00am 15.9 13.1 11.5 75 2.4 SE 17 24 9 13 1025.9 1024.5 0.0
18/06:30am 14.6 12.1 11.2 80 1.9 SE 15 22 8 12 1025.4 1023.9 0.0
18/06:00am 14.0 12.1 11.9 87 1.1 SE 13 19 7 10 1025.1 1023.6 0.0
18/05:30am 13.2 11.8 12.1 93 0.6 SSE 11 15 6 8 1024.7 1023.2 0.0
18/05:00am 12.2 11.3 10.8 91 0.7 SSE 6 11 3 6 1024.3 1022.8 0.0
18/04:30am 13.7 13.3 12.4 92 0.7 SSE 6 7 3 4 1024.0 1022.5 0.0
18/04:00am 14.2 13.4 12.9 92 0.7 SE 9 17 5 9 1023.7 1022.1 0.0
18/03:30am 14.3 13.8 12.5 89 1.0 SE 7 13 4 7 1023.3 1021.8 0.0
18/03:00am 14.8 13.3 11.9 83 1.6 ESE 11 17 6 9 1023.0 1021.5 0.0
18/02:30am 15.0 12.8 12.0 82 1.7 ESE 15 24 8 13 1023.0 1021.5 0.0
18/02:00am 15.6 14.0 12.7 83 1.6 SE 13 24 7 13 1022.9 1021.4 0.0
18/01:30am 13.2 12.2 10.2 82 1.6 ESE 6 9 3 5 1023.0 1021.5 0.0
18/01:00am 14.8 14.3 12.8 88 1.1 ESE 7 9 4 5 1023.0 1021.5 0.0
18/12:30am 14.0 13.0 11.0 82 1.6 SE 7 9 4 5 1023.2 1021.7 0.0
18/12:00am 14.6 14.0 11.6 82 1.6 SE 6 9 3 5 1023.3 1021.8 0.0
 
Date/Time
EST
Tmp

°C
App
Tmp
°C
Dew
Point
°C
Rel
Hum
%
Delta-T

°C
Wind Press
QNH
hPa
Press
MSL
hPa
Rain
since
9 am
mm
Dir
 
Spd
km/h
Gust
km/h
Spd
kts
Gust
kts
17/11:30pm 15.5 15.1 12.4 82 1.7 SE 6 7 3 4 1023.4 1021.9 0.0
17/11:00pm 15.7 15.2 12.6 82 1.7 SSE 7 9 4 5 1023.2 1021.7 0.0
17/10:30pm 15.7 15.5 11.7 77 2.2 SSE 4 9 2 5 1023.0 1021.5 0.0
17/10:00pm 17.1 16.5 12.2 73 2.7 E 7 13 4 7 1022.9 1021.4 0.0
17/09:30pm 17.7 14.8 12.4 71 3.0 E 19 30 10 16 1022.8 1021.3 0.0
17/09:00pm 18.2 15.5 11.7 66 3.6 E 17 24 9 13 1022.3 1020.8 0.0
17/08:30pm 18.9 16.8 11.2 61 4.3 E 13 24 7 13 1021.6 1020.0 0.0
17/08:00pm 19.5 17.3 10.8 57 4.8 E 13 20 7 11 1021.1 1019.6 0.0

Latest Capital City Observations: Canberra | Sydney | Melbourne | Brisbane | Adelaide | Perth | Hobart | Darwin

Other Formats:

Comma delimited format used in spreadsheet applications
http://www.bom.gov.au/fwo/IDQ60901/IDQ60901.94549.axf

JavaScript Object Notation format (JSON) in row-major order
http://www.bom.gov.au/fwo/IDQ60901/IDQ60901.94549.json